createdAt,value
2022-08-26T00:02:27.964Z,79.44
2022-08-26T00:07:29.995Z,79.79
2022-08-26T00:12:37.554Z,79.06
2022-08-26T00:17:40.466Z,80.30
2022-08-26T00:22:42.727Z,79.72
2022-08-26T00:27:44.724Z,79.77
2022-08-26T00:32:46.515Z,81.34
2022-08-26T00:37:47.986Z,82.48
2022-08-26T00:42:49.977Z,82.93
2022-08-26T00:48:00.999Z,83.49
2022-08-26T00:53:21.424Z,83.74
2022-08-26T00:58:29.399Z,83.69
2022-08-26T01:03:33.426Z,84.67
2022-08-26T01:08:35.196Z,84.61
2022-08-26T01:13:38.230Z,85.97
2022-08-26T01:18:41.168Z,86.09
2022-08-26T01:23:50.722Z,86.32
2022-08-26T01:28:56.537Z,87.21
2022-08-26T01:34:10.694Z,85.96
2022-08-26T01:39:13.068Z,86.65
2022-08-26T01:44:19.675Z,87.07
2022-08-26T01:49:23.222Z,87.50
2022-08-26T01:54:27.727Z,88.25
2022-08-26T01:59:30.153Z,88.98
2022-08-26T02:04:39.407Z,88.93
2022-08-26T02:09:42.131Z,89.76
2022-08-26T02:14:50.061Z,90.93
2022-08-26T02:19:53.277Z,91.33
2022-08-26T02:25:00.202Z,89.47
2022-08-26T02:30:17.172Z,89.32
2022-08-26T02:35:22.073Z,89.41
2022-08-26T02:40:33.688Z,89.85
2022-08-26T02:45:37.273Z,89.88
2022-08-26T02:50:39.982Z,90.67
2022-08-26T02:55:42.178Z,90.84
2022-08-26T03:00:52.780Z,89.92
2022-08-26T03:05:55.130Z,90.36
2022-08-26T03:10:56.680Z,91.12
2022-08-26T03:16:01.344Z,91.41
2022-08-26T03:21:07.899Z,90.58
2022-08-26T03:26:12.100Z,89.73
2022-08-26T03:31:13.925Z,89.34
2022-08-26T03:36:15.836Z,90.71
2022-08-26T03:41:17.969Z,89.57
2022-08-26T03:46:20.497Z,89.68
2022-08-26T03:51:22.638Z,91.50
2022-08-26T03:56:27.076Z,91.22
2022-08-26T04:01:29.019Z,90.98
2022-08-26T04:06:34.651Z,90.81
2022-08-26T04:11:37.812Z,89.39
2022-08-26T04:16:42.274Z,90.00
2022-08-26T04:21:46.924Z,89.32
2022-08-26T04:26:50.281Z,90.70
2022-08-26T04:31:55.567Z,90.71
2022-08-26T04:36:58.335Z,90.04
2022-08-26T04:42:00.276Z,89.25
2022-08-26T04:47:04.615Z,90.16
2022-08-26T04:52:06.197Z,89.60
2022-08-26T04:57:09.294Z,88.65
2022-08-26T05:02:11.372Z,88.94
2022-08-26T05:07:12.881Z,89.85
2022-08-26T05:12:14.393Z,88.69
2022-08-26T05:17:17.964Z,88.49
2022-08-26T05:22:20.145Z,89.00
2022-08-26T05:27:22.039Z,88.83
2022-08-26T05:32:23.722Z,88.42
2022-08-26T05:37:25.315Z,88.11
2022-08-26T05:42:27.025Z,88.07
2022-08-26T05:47:29.912Z,87.67
2022-08-26T05:52:33.218Z,87.70
2022-08-26T05:57:39.946Z,87.11
2022-08-26T06:02:43.738Z,87.38
2022-08-26T06:08:08.772Z,86.65
2022-08-26T06:13:12.644Z,87.02
2022-08-26T06:18:16.637Z,86.73
2022-08-26T06:23:37.008Z,87.78
2022-08-26T06:28:45.529Z,86.84
2022-08-26T06:33:47.442Z,86.87
2022-08-26T06:38:50.499Z,88.10
2022-08-26T06:43:52.331Z,87.84
2022-08-26T06:48:54.600Z,87.02
2022-08-26T06:53:59.528Z,88.15
2022-08-26T06:59:01.202Z,88.61
2022-08-26T07:04:04.845Z,89.03
2022-08-26T07:09:11.889Z,88.64
2022-08-26T07:14:13.873Z,86.52
2022-08-26T07:19:17.371Z,86.70
2022-08-26T07:24:29.329Z,85.85
2022-08-26T07:29:30.921Z,86.10
2022-08-26T07:34:33.343Z,86.26
2022-08-26T07:39:34.989Z,85.85
2022-08-26T07:44:37.837Z,88.03
2022-08-26T07:49:39.465Z,86.92
2022-08-26T07:54:41.169Z,85.89
2022-08-26T07:59:42.707Z,85.20
2022-08-26T08:04:45.332Z,85.69
2022-08-26T08:09:49.569Z,85.97
2022-08-26T08:14:51.341Z,85.35
2022-08-26T08:19:52.941Z,84.18
2022-08-26T08:24:54.739Z,83.85
2022-08-26T08:29:56.944Z,82.38
2022-08-26T08:34:59.326Z,80.53
2022-08-26T08:40:00.897Z,79.20
2022-08-26T08:45:09.731Z,80.29
2022-08-26T08:50:20.519Z,80.81
2022-08-26T08:55:26.705Z,80.31
2022-08-26T09:00:39.689Z,80.35
2022-08-26T09:05:48.791Z,80.47
2022-08-26T09:10:57.082Z,80.68
2022-08-26T09:16:10.105Z,80.48
2022-08-26T09:21:14.213Z,78.76
2022-08-26T09:26:20.077Z,78.40
2022-08-26T09:31:25.089Z,78.28
2022-08-26T09:36:43.745Z,79.81
2022-08-26T09:42:01.094Z,77.93
2022-08-26T09:47:06.924Z,77.18
2022-08-26T09:52:20.158Z,76.73
2022-08-26T09:57:27.806Z,77.38
2022-08-26T10:02:33.441Z,79.08
2022-08-26T10:07:50.502Z,78.90
2022-08-26T10:13:03.106Z,79.66
2022-08-26T10:18:15.715Z,80.24
2022-08-26T10:23:23.371Z,80.00
2022-08-26T10:28:49.775Z,81.01
2022-08-26T10:33:56.660Z,80.27
2022-08-26T10:39:05.223Z,80.20
2022-08-26T10:44:11.313Z,78.82
2022-08-26T10:49:15.605Z,78.93
2022-08-26T10:54:44.009Z,79.11
2022-08-26T10:59:52.704Z,78.25
2022-08-26T11:05:01.889Z,78.70
2022-08-26T11:10:03.273Z,78.53
2022-08-26T11:15:13.643Z,77.71
2022-08-26T11:20:35.375Z,78.11
2022-08-26T11:25:57.184Z,77.39
2022-08-26T11:30:58.958Z,77.88
2022-08-26T11:36:00.609Z,78.55
2022-08-26T11:41:20.716Z,78.31
2022-08-26T11:46:28.242Z,77.52
2022-08-26T11:51:31.453Z,77.36
2022-08-26T11:56:35.970Z,76.21
2022-08-26T12:01:44.469Z,76.50
2022-08-26T12:06:49.806Z,75.81
2022-08-26T12:11:54.113Z,74.75
2022-08-26T12:17:10.249Z,75.00
2022-08-26T12:22:23.205Z,74.39
2022-08-26T12:27:29.479Z,74.18
2022-08-26T12:32:31.961Z,74.76
2022-08-26T12:37:37.433Z,75.53
2022-08-26T12:42:42.381Z,76.15
2022-08-26T12:47:45.985Z,76.36
2022-08-26T12:52:53.934Z,76.59
2022-08-26T12:58:32.737Z,77.32
2022-08-26T13:03:34.149Z,78.06
2022-08-26T13:08:39.266Z,78.28
2022-08-26T13:13:41.059Z,78.90
2022-08-26T13:18:42.585Z,78.87
2022-08-26T13:23:44.625Z,79.93
2022-08-26T13:28:47.709Z,79.81
2022-08-26T13:34:03.913Z,81.05
2022-08-26T13:39:06.678Z,80.67
2022-08-26T13:44:08.210Z,81.00
2022-08-26T13:49:10.528Z,81.20
2022-08-26T13:54:12.021Z,79.45
2022-08-26T13:59:13.543Z,76.95
2022-08-26T14:04:15.143Z,75.55
2022-08-26T14:09:16.656Z,78.57
2022-08-26T14:14:18.184Z,73.96
2022-08-26T14:19:19.785Z,73.70
2022-08-26T14:24:26.208Z,72.83
2022-08-26T14:29:28.213Z,72.48
2022-08-26T14:34:29.744Z,71.25
2022-08-26T14:39:31.222Z,71.82
2022-08-26T14:44:33.581Z,72.03
2022-08-26T14:49:35.156Z,72.17
2022-08-26T14:54:37.706Z,70.74
2022-08-26T14:59:49.635Z,71.46
2022-08-26T15:04:51.827Z,72.03
2022-08-26T15:09:53.625Z,71.73
2022-08-26T15:14:55.117Z,73.16
2022-08-26T15:19:56.846Z,72.92
2022-08-26T15:24:58.425Z,73.74
2022-08-26T15:30:03.112Z,74.71
2022-08-26T15:35:08.882Z,74.50
2022-08-26T15:40:11.130Z,74.03
2022-08-26T15:45:12.762Z,73.96
2022-08-26T15:50:28.884Z,73.66
2022-08-26T15:55:30.395Z,74.19
2022-08-26T16:00:31.912Z,75.81
2022-08-26T16:05:37.696Z,76.74
2022-08-26T16:10:46.500Z,77.52
2022-08-26T16:15:50.833Z,77.59
2022-08-26T16:20:57.411Z,77.77
2022-08-26T16:26:18.493Z,78.03
2022-08-26T16:31:21.498Z,76.58
2022-08-26T16:36:23.096Z,78.29
2022-08-26T16:41:27.105Z,78.41
2022-08-26T16:46:29.033Z,77.87
2022-08-26T16:51:32.383Z,78.30
2022-08-26T16:56:39.489Z,78.16
2022-08-26T17:01:41.033Z,78.21
2022-08-26T17:06:42.585Z,77.73
2022-08-26T17:11:44.576Z,79.33
2022-08-26T17:16:46.720Z,78.26
2022-08-26T17:21:48.310Z,78.16
2022-08-26T17:26:50.719Z,77.01
2022-08-26T17:31:57.339Z,76.80
2022-08-26T17:36:59.322Z,76.50
2022-08-26T17:42:00.806Z,75.33
2022-08-26T17:47:02.367Z,76.30
2022-08-26T17:52:05.854Z,75.66
2022-08-26T17:57:10.706Z,76.01
2022-08-26T18:02:12.390Z,75.54
2022-08-26T18:07:14.445Z,74.78
2022-08-26T18:12:15.972Z,74.84
2022-08-26T18:17:19.419Z,73.90
2022-08-26T18:22:23.088Z,73.79
2022-08-26T18:27:24.589Z,74.50
2022-08-26T18:32:26.087Z,74.24
2022-08-26T18:37:30.922Z,74.62
2022-08-26T18:42:34.010Z,75.31
2022-08-26T18:47:35.949Z,76.07
2022-08-26T18:52:37.523Z,76.43
2022-08-26T18:57:39.900Z,77.07
2022-08-26T19:02:41.603Z,77.02
2022-08-26T19:07:48.458Z,77.41
2022-08-26T19:12:51.914Z,77.76
2022-08-26T19:17:53.884Z,80.79
2022-08-26T19:22:57.428Z,81.37
2022-08-26T19:28:01.199Z,82.02
2022-08-26T19:33:05.175Z,82.33
2022-08-26T19:38:07.238Z,81.29
2022-08-26T19:43:09.912Z,79.38
2022-08-26T19:48:13.550Z,79.77
2022-08-26T19:53:15.380Z,79.47
2022-08-26T19:58:16.897Z,79.99
2022-08-26T20:03:18.508Z,80.14
2022-08-26T20:08:21.838Z,78.12
2022-08-26T20:13:24.118Z,77.37
2022-08-26T20:18:44.328Z,77.24
2022-08-26T20:23:45.846Z,77.42
2022-08-26T20:28:47.378Z,76.08
2022-08-26T20:33:52.753Z,74.47
2022-08-26T20:38:55.321Z,75.46
2022-08-26T20:43:56.921Z,74.77
2022-08-26T20:48:58.419Z,74.55
2022-08-26T20:54:01.355Z,74.67
2022-08-26T20:59:05.576Z,74.23
2022-08-26T21:04:11.395Z,74.38
2022-08-26T21:09:18.689Z,74.37
2022-08-26T21:14:22.737Z,74.51
2022-08-26T21:19:27.294Z,74.50
2022-08-26T21:24:28.783Z,74.51
2022-08-26T21:29:30.301Z,75.15
2022-08-26T21:34:31.929Z,75.18
2022-08-26T21:39:33.531Z,76.24
2022-08-26T21:44:35.057Z,76.99
2022-08-26T21:49:36.608Z,77.13
2022-08-26T21:54:38.382Z,77.13
2022-08-26T21:59:40.685Z,76.64
2022-08-26T22:04:45.629Z,78.18
2022-08-26T22:09:49.677Z,76.96
2022-08-26T22:14:51.298Z,77.86
2022-08-26T22:19:53.070Z,78.30
2022-08-26T22:24:54.805Z,78.92
2022-08-26T22:29:56.357Z,79.02
2022-08-26T22:34:57.857Z,78.27
2022-08-26T22:39:59.419Z,78.86
2022-08-26T22:45:08.381Z,79.63
2022-08-26T22:50:10.071Z,79.90
2022-08-26T22:55:11.722Z,79.34
2022-08-26T23:00:14.121Z,79.36
2022-08-26T23:05:16.303Z,79.44
2022-08-26T23:10:17.937Z,79.23
2022-08-26T23:15:20.800Z,78.78
2022-08-26T23:20:22.456Z,78.67
2022-08-26T23:25:25.215Z,78.60
2022-08-26T23:30:29.606Z,78.32
2022-08-26T23:35:31.110Z,79.03
2022-08-26T23:40:34.917Z,79.37
2022-08-26T23:45:36.897Z,79.45
2022-08-26T23:50:57.065Z,79.67
2022-08-26T23:55:58.596Z,79.83
